Currently 50°F in Moreno Valley, California, USA
50°F
65°F / 50°F
3 mph SE
0.50"
Wednesday, May 22, 2019 7:54 PM PDT

Moreno Valley, California Weather Summary
Last 36 Hours

Temperature Winds Hourly Humidity Dewpoint
Time Report Norm Report Norm Max Gusts Precip. Rpt. Norm Rpt. Norm Pressure
1Wed 07:54 PM  50.1°F  65°F  3 mph SE  4 mph  6 mph  0.00"  98%  63%  50°F  52°F  27.92"
Wed 07:00 PM  50.8°F  69°F  calm  6 mph  6 mph  0.01"  98%  56%  50°F  52°F  27.91"
Wed 06:00 PM  50.9°F  73°F  1 mph S  6 mph  4 mph  0.00"  98%  48%  50°F  52°F  27.90"
Wed 05:00 PM  50.5°F  76°F  calm  7 mph  9 mph  0.08"  98%  44%  50°F  51°F  27.90"
Wed 04:00 PM  50.2°F  77°F  calm  6 mph  8 mph  0.12"  97%  42%  49°F  51°F  27.90"
3Wed 03:30 PM  49.6°F  77°F  calm  7 mph  8 mph  ----  97%  41%  49°F  51°F  27.89"
Wed 03:00 PM  51.7°F  77°F  4 mph NE  6 mph  7 mph  0.02"  96%  41%  50°F  51°F  27.89"
Wed 02:00 PM  51.7°F  76°F  4 mph SE  6 mph  15 mph  0.27"  94%  43%  50°F  51°F  27.86"
Wed 01:00 PM  58.0°F  74°F  6 mph SW  5 mph  14 mph  0.00"  76%  46%  50°F  51°F  27.84"
Wed 12:00 PM  59.3°F  72°F  5 mph S  5 mph  15 mph  0.00"  73%  52%  50°F  52°F  27.85"
2Wed 11:33 AM  64.6°F  70°F  7 mph S  4 mph  10 mph  ----  60%  55%  50°F  53°F  27.85"
Wed 11:00 AM  62.3°F  69°F  4 mph NW  4 mph  13 mph  0.00"  63%  59%  49°F  53°F  27.85"
Wed 10:00 AM  59.9°F  66°F  calm  3 mph  6 mph  0.00"  72%  65%  50°F  53°F  27.86"
Wed 09:00 AM  55.4°F  63°F  calm  3 mph  6 mph  0.00"  90%  74%  52°F  54°F  27.86"
Wed 08:00 AM  52.4°F  59°F  1 mph SE  2 mph  5 mph  0.00"  96%  83%  51°F  54°F  27.87"
Wed 07:00 AM  50.1°F  56°F  calm  1 mph  7 mph  0.00"  97%  89%  49°F  53°F  27.86"
Wed 06:00 AM  50.3°F  54°F  4 mph S  1 mph  8 mph  0.00"  96%  90%  49°F  51°F  27.85"
Wed 05:00 AM  50.4°F  55°F  5 mph S  1 mph  9 mph  0.00"  96%  89%  49°F  51°F  27.85"
Wed 04:00 AM  50.7°F  55°F  3 mph SE  1 mph  8 mph  0.00"  96%  89%  49°F  52°F  27.85"
Wed 03:00 AM  51.7°F  55°F  3 mph S  1 mph  7 mph  0.00"  95%  88%  50°F  52°F  27.86"
Wed 02:00 AM  52.5°F  56°F  5 mph S  1 mph  8 mph  0.00"  95%  87%  51°F  52°F  27.88"
Wed 01:00 AM  52.8°F  57°F  4 mph SE  1 mph  9 mph  0.00"  94%  85%  51°F  52°F  27.89"
Wed 12:00 AM  53.2°F  58°F  3 mph SE  2 mph  7 mph  0.00"  93%  83%  51°F  52°F  27.89"
Tue 11:00 PM  52.9°F  59°F  1 mph NE  2 mph  7 mph  0.00"  94%  80%  51°F  52°F  27.91"
Tue 10:00 PM  53.8°F  61°F  4 mph NE  2 mph  10 mph  0.00"  90%  75%  51°F  52°F  27.92"
Tue 09:00 PM  55.3°F  63°F  2 mph NW  3 mph  7 mph  0.00"  83%  70%  50°F  52°F  27.91"
Tue 08:00 PM  55.9°F  65°F  2 mph SW  4 mph  10 mph  0.00"  81%  63%  50°F  52°F  27.91"
Tue 07:00 PM  57.2°F  69°F  4 mph S  6 mph  13 mph  0.00"  79%  55%  50°F  52°F  27.91"
Tue 06:00 PM  58.3°F  73°F  5 mph SW  6 mph  17 mph  0.00"  74%  48%  50°F  51°F  27.91"
Tue 05:00 PM  59.3°F  76°F  8 mph SW  7 mph  20 mph  0.00"  72%  44%  50°F  51°F  27.92"
Tue 04:00 PM  62.7°F  77°F  7 mph SW  7 mph  21 mph  0.00"  66%  41%  51°F  51°F  27.94"
Tue 03:00 PM  62.7°F  77°F  8 mph SW  6 mph  18 mph  0.00"  64%  41%  50°F  51°F  27.95"
Tue 02:00 PM  65.1°F  76°F  6 mph W  6 mph  19 mph  0.00"  60%  43%  50°F  51°F  27.97"
Tue 01:00 PM  63.7°F  74°F  7 mph W  5 mph  16 mph  0.00"  64%  46%  51°F  51°F  27.98"
Tue 12:00 PM  63.6°F  72°F  4 mph W  5 mph  13 mph  0.00"  64%  52%  51°F  52°F  27.99"
Tue 11:00 AM  61.5°F  69°F  6 mph SW  4 mph  10 mph  0.00"  70%  58%  51°F  53°F  28.02"
Tue 10:00 AM  58.3°F  66°F  2 mph SE  3 mph  10 mph  0.00"  80%  65%  52°F  53°F  28.03"
Tue 09:00 AM  56.7°F  63°F  5 mph SE  3 mph  9 mph  0.00"  87%  74%  53°F  54°F  28.03"
Tue 08:00 AM  53.2°F  60°F  3 mph S  2 mph  9 mph  0.00"  95%  81%  52°F  54°F  28.05"

  1. Current weather data. No green row appears if the current weather data is also the high or low for the current day.
  2. High temperature for the current day.
  3. Low temperature for the current day.

The Moreno Valley, California weather pages are a service of WeatherCurrents. Moreno Valley is located in Southern California's Inland Empire, east of Riverside and north of Perris, along the State Route 60 freeway.
Copyright ©2019  WeatherCurrents. All rights reserved. - Submit questions and comments - Privacy Policy

This page automatically refreshes every 10 minutes.